BERICHT 22/12/2019: De oude website is tijdelijk weer online! In 2020 zal er een volledig nieuwe site uitgerold worden, die nu volop in ontwikkeling is! Ondertussen blijven onderstaande metingen wel actueel!

Weerstation Zoersel Live Webcam Weerstation Zoersel Live Webcam


sateliet wolkenradar  


Doneren

CBI


onweer radar meer informatie blitzortung!


regen radar  rain snow radar


Enkele sfeerfotootjes...  

Het weer levert geen direct gevaar op.    Er zijn geen waarschuwingen afgegeven.

metar rapporten vliegvelden

   
EBAW - Antwerp
gewijzigd: 02-04-2020 08:50
helder  
helder  
   wind: zw 5,6 km/h
wind: zw 5,6 km/h
temperatuur: 4°C
voelt als: 3°C
dauwpunt: 1°C
vochtigheid: 81%
barometer: 1016 hPa
zicht: meer dan 10 km
bewolking: helder
EBAW 020650Z 23003KT 210V290 CAVOK 04/01 Q1016 NOSIG
EBLG - Li├Ęge
gewijzigd: 02-04-2020 08:50
nevel, gedeeltelijk bewolkt  
nevel, gedeeltelijk bewolkt  
   wind: varieert 3,7 km/h
wind: varieert 3,7 km/h
temperatuur: 1°C
dauwpunt: 0°C
vochtigheid: 93%
barometer: 1016 hPa
bewolking: gedeeltelijk bewolkt
zicht: 5 km
bewolking: gedeeltelijk bewolkt
EBLG 020650Z VRB02KT 5000 BR NSC 01/M00 Q1016 NOSIG
EBCV - Mons/Bergen
gewijzigd: 02-04-2020 08:55
helder  
helder  
   wind: varieert 1,9 km/h
wind: varieert 1,9 km/h
temperatuur: 1°C
dauwpunt: 0°C
vochtigheid: 93%
barometer: 1016 hPa
bewolking: helder
zicht: 5 km
bewolking: helder
EBCV 020655Z AUTO VRB01KT 5000 NCD 01/M00 Q1016 WHT
EHBK - Maastricht
gewijzigd: 02-04-2020 08:55
helder  
helder  
   wind: zzw 11,1 km/h
wind: zzw 11,1 km/h
temperatuur: 1°C
voelt als: -2°C
dauwpunt: -1°C
vochtigheid: 87%
barometer: 1016 hPa
bewolking: helder
zicht: 9 km
bewolking: helder
EHBK 020655Z AUTO 21006KT 9000 NCD 01/M01 Q1016 NOSIG
ELLX - Luxemburg
gewijzigd: 02-04-2020 08:50
helder  
helder  
   wind: no 11,1 km/h
wind: no 11,1 km/h
temperatuur: 4°C
voelt als: 1°C
dauwpunt: -5°C
vochtigheid: 52%
barometer: 1014 hPa
zicht: meer dan 10 km
bewolking: helder
ELLX 020650Z 05006KT CAVOK 04/M05 Q1014 NOSIG
EBOS - Oostende
gewijzigd: 02-04-2020 08:50
grotendeels bewolkt  
grotendeels bewolkt  
   wind: varieert 3,7 km/h
wind: varieert 3,7 km/h
temperatuur: 4°C
dauwpunt: 2°C
vochtigheid: 87%
barometer: 1016 hPa
bewolking: grotendeels bewolkt
zicht: meer dan 10 km
bewolking: grotendeels bewolkt 4800 ft
EBOS 020650Z VRB02KT 9999 BKN048 04/02 Q1016 NOSIG

script ontwikkeld door  Saratoga-weather.org aangepast voor de template door  Weerstation Leuven